sensor_id;sensor_type;location;lat;lon;timestamp;pressure;altitude;pressure_sealevel;temperature;humidity
74913;BME280;63878;55.624;37.304;2023-04-08T00:09:45;100024.19;;;2.13;34.91
74913;BME280;63878;55.624;37.304;2023-04-08T00:19:46;100044.66;;;2.22;34.77
74913;BME280;63878;55.624;37.304;2023-04-08T00:29:46;100041.88;;;2.04;35.51
74913;BME280;63878;55.624;37.304;2023-04-08T00:39:47;100036.13;;;1.96;35.50
74913;BME280;63878;55.624;37.304;2023-04-08T00:49:48;100038.59;;;1.77;36.35
74913;BME280;63878;55.624;37.304;2023-04-08T00:59:48;100037.50;;;1.83;36.45
74913;BME280;63878;55.624;37.304;2023-04-08T01:09:52;100030.84;;;1.76;36.49
74913;BME280;63878;55.624;37.304;2023-04-08T01:19:55;100045.47;;;1.78;37.26
74913;BME280;63878;55.624;37.304;2023-04-08T01:29:57;100037.34;;;1.64;37.54
74913;BME280;63878;55.624;37.304;2023-04-08T01:40:00;100046.66;;;1.46;37.81
74913;BME280;63878;55.624;37.304;2023-04-08T01:50:01;100042.38;;;1.45;38.47
74913;BME280;63878;55.624;37.304;2023-04-08T02:00:08;100043.78;;;1.54;38.03
74913;BME280;63878;55.624;37.304;2023-04-08T02:10:09;100046.44;;;1.52;38.07
74913;BME280;63878;55.624;37.304;2023-04-08T02:20:17;100052.44;;;1.54;37.92
74913;BME280;63878;55.624;37.304;2023-04-08T02:30:18;100042.81;;;1.33;38.76
74913;BME280;63878;55.624;37.304;2023-04-08T02:40:23;100052.34;;;1.09;39.91
74913;BME280;63878;55.624;37.304;2023-04-08T02:50:24;100043.69;;;1.09;39.12
74913;BME280;63878;55.624;37.304;2023-04-08T03:00:25;100057.75;;;1.03;39.76
74913;BME280;63878;55.624;37.304;2023-04-08T03:10:25;100062.03;;;1.29;39.28
74913;BME280;63878;55.624;37.304;2023-04-08T03:20:26;100069.63;;;1.10;40.31
74913;BME280;63878;55.624;37.304;2023-04-08T03:30:26;100072.13;;;1.38;39.98
74913;BME280;63878;55.624;37.304;2023-04-08T03:40:27;100062.44;;;1.89;38.78
74913;BME280;63878;55.624;37.304;2023-04-08T03:50:27;100065.75;;;2.16;38.09
74913;BME280;63878;55.624;37.304;2023-04-08T04:00:28;100058.34;;;2.27;38.75
74913;BME280;63878;55.624;37.304;2023-04-08T04:10:29;100076.03;;;2.84;37.00
74913;BME280;63878;55.624;37.304;2023-04-08T04:20:29;100084.47;;;3.71;36.81
74913;BME280;63878;55.624;37.304;2023-04-08T04:30:30;100071.44;;;3.90;35.12
74913;BME280;63878;55.624;37.304;2023-04-08T04:40:30;100077.72;;;3.46;36.24
74913;BME280;63878;55.624;37.304;2023-04-08T04:50:30;100074.63;;;4.69;34.49
74913;BME280;63878;55.624;37.304;2023-04-08T05:00:31;100081.13;;;5.14;32.76
74913;BME280;63878;55.624;37.304;2023-04-08T05:10:32;100096.56;;;5.37;33.51
74913;BME280;63878;55.624;37.304;2023-04-08T05:20:32;100099.44;;;5.14;33.90
74913;BME280;63878;55.624;37.304;2023-04-08T05:30:32;100104.81;;;4.93;34.09
74913;BME280;63878;55.624;37.304;2023-04-08T05:40:33;100105.63;;;5.63;33.78
74913;BME280;63878;55.624;37.304;2023-04-08T05:50:34;100112.94;;;5.74;33.62
74913;BME280;63878;55.624;37.304;2023-04-08T06:00:35;100118.81;;;5.79;34.47
74913;BME280;63878;55.624;37.304;2023-04-08T06:10:36;100100.19;;;5.16;34.42
74913;BME280;63878;55.624;37.304;2023-04-08T06:20:36;100104.31;;;5.04;34.79
74913;BME280;63878;55.624;37.304;2023-04-08T06:30:36;100115.53;;;5.06;35.13
74913;BME280;63878;55.624;37.304;2023-04-08T06:40:38;100117.72;;;5.32;34.72
74913;BME280;63878;55.624;37.304;2023-04-08T06:50:39;100108.63;;;5.40;35.05
74913;BME280;63878;55.624;37.304;2023-04-08T07:00:41;100119.25;;;5.70;34.90
74913;BME280;63878;55.624;37.304;2023-04-08T07:10:41;100103.03;;;6.12;34.14
74913;BME280;63878;55.624;37.304;2023-04-08T07:20:42;100101.00;;;6.49;33.02
74913;BME280;63878;55.624;37.304;2023-04-08T07:30:42;100106.69;;;5.76;34.32
74913;BME280;63878;55.624;37.304;2023-04-08T07:40:43;100091.09;;;6.22;33.79
74913;BME280;63878;55.624;37.304;2023-04-08T07:50:44;100100.69;;;6.39;32.11
74913;BME280;63878;55.624;37.304;2023-04-08T08:00:44;100096.72;;;6.32;33.28
74913;BME280;63878;55.624;37.304;2023-04-08T08:10:45;100095.34;;;7.02;31.90
74913;BME280;63878;55.624;37.304;2023-04-08T08:20:45;100097.00;;;6.73;31.26
74913;BME280;63878;55.624;37.304;2023-04-08T08:30:46;100093.72;;;6.85;29.49
74913;BME280;63878;55.624;37.304;2023-04-08T08:40:53;100090.25;;;6.53;31.19
74913;BME280;63878;55.624;37.304;2023-04-08T08:50:54;100068.72;;;6.32;31.14
74913;BME280;63878;55.624;37.304;2023-04-08T09:00:54;100057.19;;;6.35;31.05
74913;BME280;63878;55.624;37.304;2023-04-08T09:11:09;100081.78;;;6.48;30.72
74913;BME280;63878;55.624;37.304;2023-04-08T09:21:11;100064.19;;;6.50;31.41
74913;BME280;63878;55.624;37.304;2023-04-08T09:31:20;100078.63;;;6.73;31.13
74913;BME280;63878;55.624;37.304;2023-04-08T09:41:22;100066.50;;;6.25;31.80
74913;BME280;63878;55.624;37.304;2023-04-08T09:51:23;100065.59;;;6.87;31.57
74913;BME280;63878;55.624;37.304;2023-04-08T10:01:33;100067.34;;;7.17;33.81
74913;BME280;63878;55.624;37.304;2023-04-08T10:11:35;100065.47;;;7.19;32.84
74913;BME280;63878;55.624;37.304;2023-04-08T10:21:37;100065.22;;;7.38;29.83
74913;BME280;63878;55.624;37.304;2023-04-08T10:31:39;100051.25;;;7.51;30.94
74913;BME280;63878;55.624;37.304;2023-04-08T10:41:47;100053.72;;;6.80;30.14
74913;BME280;63878;55.624;37.304;2023-04-08T10:51:48;100038.19;;;7.78;29.93
74913;BME280;63878;55.624;37.304;2023-04-08T11:01:49;99994.91;;;8.52;36.99
74913;BME280;63878;55.624;37.304;2023-04-08T11:11:51;100013.94;;;9.21;45.47
74913;BME280;63878;55.624;37.304;2023-04-08T11:21:53;100006.41;;;8.89;29.89
74913;BME280;63878;55.624;37.304;2023-04-08T11:31:55;100019.63;;;7.24;31.12
74913;BME280;63878;55.624;37.304;2023-04-08T11:41:56;99999.31;;;7.83;32.33
74913;BME280;63878;55.624;37.304;2023-04-08T11:51:57;99977.63;;;7.80;31.36
74913;BME280;63878;55.624;37.304;2023-04-08T12:01:58;99990.75;;;7.24;31.64
74913;BME280;63878;55.624;37.304;2023-04-08T12:11:59;99984.53;;;7.95;34.73
74913;BME280;63878;55.624;37.304;2023-04-08T12:22:00;99972.63;;;7.48;33.47
74913;BME280;63878;55.624;37.304;2023-04-08T12:32:01;99956.28;;;7.99;32.30
74913;BME280;63878;55.624;37.304;2023-04-08T12:42:03;99947.59;;;7.84;32.74
74913;BME280;63878;55.624;37.304;2023-04-08T12:52:04;99939.03;;;7.53;32.93
74913;BME280;63878;55.624;37.304;2023-04-08T13:02:04;99939.06;;;7.80;32.68
74913;BME280;63878;55.624;37.304;2023-04-08T13:12:05;99931.41;;;7.90;31.75
74913;BME280;63878;55.624;37.304;2023-04-08T13:22:06;99916.97;;;8.10;32.18
74913;BME280;63878;55.624;37.304;2023-04-08T13:32:06;99918.72;;;8.24;31.71
74913;BME280;63878;55.624;37.304;2023-04-08T13:42:07;99912.72;;;8.22;33.11
74913;BME280;63878;55.624;37.304;2023-04-08T13:52:08;99905.81;;;8.06;29.85
74913;BME280;63878;55.624;37.304;2023-04-08T14:02:08;99898.53;;;8.37;29.70
74913;BME280;63878;55.624;37.304;2023-04-08T14:12:09;99880.50;;;8.18;30.07
74913;BME280;63878;55.624;37.304;2023-04-08T14:22:10;99887.44;;;8.19;30.41
74913;BME280;63878;55.624;37.304;2023-04-08T14:32:10;99883.75;;;8.74;29.96
74913;BME280;63878;55.624;37.304;2023-04-08T14:42:11;99884.78;;;8.59;29.72
74913;BME280;63878;55.624;37.304;2023-04-08T14:52:12;99874.13;;;8.35;30.75
74913;BME280;63878;55.624;37.304;2023-04-08T15:02:13;99880.22;;;8.23;31.60
74913;BME280;63878;55.624;37.304;2023-04-08T15:12:14;99876.47;;;8.65;33.24
74913;BME280;63878;55.624;37.304;2023-04-08T15:22:14;99869.03;;;8.19;31.13
74913;BME280;63878;55.624;37.304;2023-04-08T15:32:15;99872.44;;;8.21;31.02
74913;BME280;63878;55.624;37.304;2023-04-08T15:42:15;99873.88;;;8.13;31.32
74913;BME280;63878;55.624;37.304;2023-04-08T15:52:16;99879.22;;;8.11;32.21
74913;BME280;63878;55.624;37.304;2023-04-08T16:02:16;99883.81;;;8.34;31.59
74913;BME280;63878;55.624;37.304;2023-04-08T16:12:17;99883.22;;;8.04;32.25
74913;BME280;63878;55.624;37.304;2023-04-08T16:22:18;99896.91;;;8.87;37.19
74913;BME280;63878;55.624;37.304;2023-04-08T16:32:19;99880.88;;;8.90;31.11
74913;BME280;63878;55.624;37.304;2023-04-08T16:42:19;99905.00;;;8.58;31.53
74913;BME280;63878;55.624;37.304;2023-04-08T16:52:20;99907.56;;;8.20;32.17
74913;BME280;63878;55.624;37.304;2023-04-08T17:02:22;99914.44;;;7.54;34.22
74913;BME280;63878;55.624;37.304;2023-04-08T17:12:23;99920.53;;;7.55;33.18
74913;BME280;63878;55.624;37.304;2023-04-08T17:22:24;99921.03;;;8.01;33.85
74913;BME280;63878;55.624;37.304;2023-04-08T17:32:24;99922.16;;;7.70;33.74
74913;BME280;63878;55.624;37.304;2023-04-08T17:42:25;99919.47;;;7.72;33.80
74913;BME280;63878;55.624;37.304;2023-04-08T17:52:25;99913.41;;;7.43;35.13
74913;BME280;63878;55.624;37.304;2023-04-08T18:02:26;99920.22;;;7.04;36.23
74913;BME280;63878;55.624;37.304;2023-04-08T18:12:27;99923.50;;;6.93;36.07
74913;BME280;63878;55.624;37.304;2023-04-08T18:22:28;99926.06;;;6.65;36.54
74913;BME280;63878;55.624;37.304;2023-04-08T18:32:28;99921.97;;;6.31;37.83
74913;BME280;63878;55.624;37.304;2023-04-08T18:42:29;99926.03;;;6.51;37.13
74913;BME280;63878;55.624;37.304;2023-04-08T18:52:36;99921.34;;;6.56;37.47
74913;BME280;63878;55.624;37.304;2023-04-08T19:02:37;99935.28;;;6.42;37.66
74913;BME280;63878;55.624;37.304;2023-04-08T19:12:38;99925.09;;;6.52;38.25
74913;BME280;63878;55.624;37.304;2023-04-08T19:22:38;99930.81;;;6.44;38.45
74913;BME280;63878;55.624;37.304;2023-04-08T19:32:39;99929.19;;;6.41;39.94
74913;BME280;63878;55.624;37.304;2023-04-08T19:42:39;99907.03;;;6.01;39.98
74913;BME280;63878;55.624;37.304;2023-04-08T19:52:40;99927.22;;;6.31;40.76
74913;BME280;63878;55.624;37.304;2023-04-08T20:02:41;99935.72;;;6.34;39.32
74913;BME280;63878;55.624;37.304;2023-04-08T20:12:41;99936.84;;;6.30;39.50
74913;BME280;63878;55.624;37.304;2023-04-08T20:22:42;99946.59;;;6.12;39.21
74913;BME280;63878;55.624;37.304;2023-04-08T20:32:43;99947.19;;;6.17;40.17
74913;BME280;63878;55.624;37.304;2023-04-08T20:42:43;99945.44;;;6.02;39.88
74913;BME280;63878;55.624;37.304;2023-04-08T20:52:44;99946.13;;;5.74;41.10
74913;BME280;63878;55.624;37.304;2023-04-08T21:02:44;99941.00;;;5.57;41.86
74913;BME280;63878;55.624;37.304;2023-04-08T21:12:45;99939.69;;;5.48;41.49
74913;BME280;63878;55.624;37.304;2023-04-08T21:22:45;99943.66;;;5.40;41.86
74913;BME280;63878;55.624;37.304;2023-04-08T21:32:46;99917.41;;;5.41;41.70
74913;BME280;63878;55.624;37.304;2023-04-08T21:42:47;99944.59;;;5.39;43.22
74913;BME280;63878;55.624;37.304;2023-04-08T21:52:47;99936.50;;;5.43;43.73
74913;BME280;63878;55.624;37.304;2023-04-08T22:02:48;99946.47;;;5.52;46.86
74913;BME280;63878;55.624;37.304;2023-04-08T22:12:49;99945.31;;;5.58;42.22
74913;BME280;63878;55.624;37.304;2023-04-08T22:22:50;99953.31;;;5.55;42.35
74913;BME280;63878;55.624;37.304;2023-04-08T22:32:50;99955.69;;;5.44;42.71
74913;BME280;63878;55.624;37.304;2023-04-08T22:42:51;99956.31;;;4.98;43.92
74913;BME280;63878;55.624;37.304;2023-04-08T22:52:52;99952.06;;;4.96;44.39
74913;BME280;63878;55.624;37.304;2023-04-08T23:02:52;99956.66;;;5.08;46.82
74913;BME280;63878;55.624;37.304;2023-04-08T23:12:53;99954.69;;;4.96;43.81
74913;BME280;63878;55.624;37.304;2023-04-08T23:22:54;99955.66;;;4.77;45.00
74913;BME280;63878;55.624;37.304;2023-04-08T23:32:54;99963.81;;;4.71;44.68
74913;BME280;63878;55.624;37.304;2023-04-08T23:42:55;99967.09;;;4.75;45.34
74913;BME280;63878;55.624;37.304;2023-04-08T23:52:55;99963.91;;;4.70;45.34
